createdAt,value
2022-08-14T00:00:21.902Z,21.20
2022-08-14T00:01:24.177Z,21.15
2022-08-14T00:02:21.842Z,21.12
2022-08-14T00:03:21.685Z,21.09
2022-08-14T00:04:32.225Z,21.11
2022-08-14T00:05:21.532Z,21.18
2022-08-14T00:06:25.791Z,21.14
2022-08-14T00:07:21.383Z,21.17
2022-08-14T00:08:45.175Z,21.07
2022-08-14T00:09:21.234Z,21.15
2022-08-14T00:10:51.492Z,21.00
2022-08-14T00:11:21.088Z,21.07
2022-08-14T00:12:24.046Z,20.96
2022-08-14T00:13:20.940Z,21.03
2022-08-14T00:14:20.866Z,21.09
2022-08-14T00:15:21.761Z,20.97
2022-08-14T00:16:40.332Z,21.05
2022-08-14T00:17:20.638Z,21.00
2022-08-14T00:19:05.592Z,20.92
2022-08-14T00:19:21.544Z,20.93
2022-08-14T00:20:23.780Z,20.95
2022-08-14T00:21:20.344Z,20.93
2022-08-14T00:22:44.599Z,20.97
2022-08-14T00:23:20.503Z,20.97
2022-08-14T00:24:23.274Z,20.85
2022-08-14T00:25:20.045Z,20.96
2022-08-14T00:26:23.236Z,20.95
2022-08-14T00:27:19.898Z,20.95
2022-08-14T00:28:19.815Z,20.85
2022-08-14T00:29:19.747Z,20.93
2022-08-14T00:30:19.663Z,20.82
2022-08-14T00:31:19.596Z,20.92
2022-08-14T00:32:52.369Z,20.78
2022-08-14T00:33:19.442Z,20.77
2022-08-14T00:34:36.257Z,20.87
2022-08-14T00:35:19.295Z,20.84
2022-08-14T00:36:35.716Z,20.88
2022-08-14T00:37:19.145Z,20.85
2022-08-14T00:38:19.075Z,20.82
2022-08-14T00:39:19.010Z,20.93
2022-08-14T00:40:33.188Z,20.77
2022-08-14T00:41:18.849Z,20.75
2022-08-14T00:42:21.474Z,20.81
2022-08-14T00:43:18.702Z,20.81
2022-08-14T00:44:21.393Z,20.84
2022-08-14T00:45:18.547Z,20.72
2022-08-14T00:46:33.328Z,20.78
2022-08-14T00:47:18.406Z,20.75
2022-08-14T00:48:33.892Z,20.70
2022-08-14T00:49:18.253Z,20.69
2022-08-14T00:50:18.238Z,20.69
2022-08-14T00:51:18.099Z,20.65
2022-08-14T00:52:18.646Z,20.70
2022-08-14T00:53:17.949Z,20.59
2022-08-14T00:54:21.776Z,20.55
2022-08-14T00:55:17.805Z,20.58
2022-08-14T00:56:17.738Z,20.48
2022-08-14T00:57:17.652Z,20.48
2022-08-14T00:58:17.579Z,20.41
2022-08-14T00:59:17.502Z,20.28
2022-08-14T01:00:34.151Z,20.34
2022-08-14T01:01:17.379Z,20.22
2022-08-14T01:02:17.271Z,20.21
2022-08-14T01:03:17.202Z,20.24
2022-08-14T01:04:51.821Z,20.26
2022-08-14T01:05:17.051Z,20.24
2022-08-14T01:06:17.011Z,20.29
2022-08-14T01:07:16.906Z,20.28
2022-08-14T01:08:20.694Z,20.25
2022-08-14T01:09:16.758Z,20.28
2022-08-14T01:10:16.673Z,20.28
2022-08-14T01:11:19.546Z,20.22
2022-08-14T01:12:27.205Z,20.18
2022-08-14T01:13:16.451Z,20.19
2022-08-14T01:14:25.900Z,20.24
2022-08-14T01:15:16.303Z,20.18
2022-08-14T01:16:16.233Z,20.24
2022-08-14T01:17:16.158Z,20.16
2022-08-14T01:18:16.075Z,20.13
2022-08-14T01:19:16.008Z,20.25
2022-08-14T01:20:27.529Z,20.19
2022-08-14T01:21:15.861Z,20.18
2022-08-14T01:22:18.499Z,20.24
2022-08-14T01:23:19.023Z,20.22
2022-08-14T01:24:22.862Z,20.19
2022-08-14T01:25:15.548Z,20.21
2022-08-14T01:26:15.477Z,20.22
2022-08-14T01:27:15.403Z,20.22
2022-08-14T01:28:46.182Z,20.24
2022-08-14T01:29:22.153Z,20.21
2022-08-14T01:30:16.817Z,20.21
2022-08-14T01:31:15.103Z,20.19
2022-08-14T01:32:15.696Z,20.18
2022-08-14T01:33:14.948Z,20.24
2022-08-14T01:35:18.447Z,20.18
2022-08-14T01:35:19.617Z,20.16
2022-08-14T01:36:21.229Z,20.16
2022-08-14T01:37:16.535Z,20.11
2022-08-14T01:38:14.570Z,20.18
2022-08-14T01:39:14.501Z,20.18
2022-08-14T01:40:15.377Z,20.19
2022-08-14T01:41:15.047Z,20.10
2022-08-14T01:42:32.182Z,20.14
2022-08-14T01:43:14.203Z,20.11
2022-08-14T01:44:32.969Z,20.19
2022-08-14T01:45:17.903Z,20.06
2022-08-14T01:46:24.400Z,20.07
2022-08-14T01:47:21.062Z,20.11
2022-08-14T01:48:14.192Z,20.10
2022-08-14T01:49:13.749Z,20.02
2022-08-14T01:50:14.357Z,20.06
2022-08-14T01:51:19.064Z,19.91
2022-08-14T01:52:34.527Z,19.88
2022-08-14T01:53:13.443Z,19.79
2022-08-14T01:54:14.387Z,19.77
2022-08-14T01:55:13.299Z,19.71
2022-08-14T01:56:18.232Z,19.81
2022-08-14T01:57:13.146Z,19.79
2022-08-14T01:58:20.227Z,19.73
2022-08-14T01:59:18.241Z,19.69
2022-08-14T02:00:12.918Z,19.62
2022-08-14T02:01:12.870Z,19.74
2022-08-14T02:02:14.772Z,19.63
2022-08-14T02:03:12.701Z,19.67
2022-08-14T02:04:20.585Z,19.63
2022-08-14T02:05:12.542Z,19.70
2022-08-14T02:06:32.153Z,19.73
2022-08-14T02:07:15.743Z,19.76
2022-08-14T02:08:12.317Z,19.71
2022-08-14T02:09:22.273Z,19.67
2022-08-14T02:10:13.089Z,19.64
2022-08-14T02:11:12.089Z,19.73
2022-08-14T02:12:19.659Z,19.76
2022-08-14T02:13:11.940Z,19.67
2022-08-14T02:14:14.192Z,19.77
2022-08-14T02:15:11.797Z,19.67
2022-08-14T02:16:22.129Z,19.71
2022-08-14T02:17:11.641Z,19.63
2022-08-14T02:18:15.047Z,19.69
2022-08-14T02:19:11.494Z,19.62
2022-08-14T02:20:11.409Z,19.81
2022-08-14T02:21:11.339Z,19.82
2022-08-14T02:22:11.264Z,19.79
2022-08-14T02:23:11.421Z,19.76
2022-08-14T02:24:38.932Z,19.71
2022-08-14T02:25:11.037Z,19.64
2022-08-14T02:26:24.231Z,19.64
2022-08-14T02:28:23.108Z,19.55
2022-08-14T02:28:25.869Z,19.55
2022-08-14T02:29:10.730Z,19.51
2022-08-14T02:30:10.656Z,19.52
2022-08-14T02:31:10.585Z,19.48
2022-08-14T02:32:10.505Z,19.51
2022-08-14T02:33:10.791Z,19.52
2022-08-14T02:34:20.068Z,19.52
2022-08-14T02:35:10.367Z,19.49
2022-08-14T02:37:04.109Z,19.52
2022-08-14T02:37:10.130Z,19.51
2022-08-14T02:38:11.708Z,19.54
2022-08-14T02:39:09.977Z,19.51
2022-08-14T02:40:09.903Z,19.49
2022-08-14T02:41:11.084Z,19.55
2022-08-14T02:42:13.215Z,19.55
2022-08-14T02:43:09.676Z,19.54
2022-08-14T02:44:09.602Z,19.55
2022-08-14T02:45:09.529Z,19.55
2022-08-14T02:46:09.448Z,19.51
2022-08-14T02:47:14.733Z,19.55
2022-08-14T02:48:10.516Z,19.54
2022-08-14T02:49:09.227Z,19.49
2022-08-14T02:50:09.146Z,19.44
2022-08-14T02:51:09.302Z,19.49
2022-08-14T02:52:56.825Z,19.44
2022-08-14T02:53:09.014Z,19.41
2022-08-14T02:54:08.843Z,19.41
2022-08-14T02:55:08.781Z,19.45
2022-08-14T02:56:10.201Z,19.36
2022-08-14T02:57:15.698Z,19.41
2022-08-14T02:58:08.541Z,19.45
2022-08-14T02:59:08.472Z,19.36
2022-08-14T03:00:09.871Z,19.37
2022-08-14T03:01:08.353Z,19.33
2022-08-14T03:02:08.268Z,19.37
2022-08-14T03:03:08.437Z,19.26
2022-08-14T03:04:08.086Z,19.31
2022-08-14T03:05:08.015Z,19.29
2022-08-14T03:06:08.985Z,19.30
2022-08-14T03:07:08.379Z,19.27
2022-08-14T03:08:07.935Z,19.31
2022-08-14T03:09:07.708Z,19.29
2022-08-14T03:10:28.088Z,19.27
2022-08-14T03:11:07.839Z,19.27
2022-08-14T03:12:07.480Z,19.31
2022-08-14T03:13:07.408Z,19.29
2022-08-14T03:14:07.330Z,19.30
2022-08-14T03:15:07.256Z,19.26
2022-08-14T03:16:08.941Z,19.29
2022-08-14T03:17:07.110Z,19.31
2022-08-14T03:18:07.029Z,19.27
2022-08-14T03:19:06.955Z,19.30
2022-08-14T03:20:06.881Z,19.31
2022-08-14T03:21:07.432Z,19.33
2022-08-14T03:22:09.333Z,19.30
2022-08-14T03:23:06.652Z,19.33
2022-08-14T03:24:06.579Z,19.29
2022-08-14T03:25:06.503Z,19.30
2022-08-14T03:26:06.433Z,19.30
2022-08-14T03:27:06.351Z,19.30
2022-08-14T03:28:06.272Z,19.30
2022-08-14T03:29:06.194Z,19.26
2022-08-14T03:30:06.120Z,19.31
2022-08-14T03:31:08.395Z,19.30
2022-08-14T03:32:05.972Z,19.27
2022-08-14T03:33:05.895Z,19.27
2022-08-14T03:34:05.816Z,19.27
2022-08-14T03:35:08.944Z,19.27
2022-08-14T03:37:15.418Z,19.24
2022-08-14T03:37:51.539Z,19.29
2022-08-14T03:39:13.130Z,19.22
2022-08-14T03:39:16.051Z,19.22
2022-08-14T03:40:05.447Z,19.21
2022-08-14T03:41:05.291Z,19.18
2022-08-14T03:42:05.212Z,19.19
2022-08-14T03:43:05.144Z,19.12
2022-08-14T03:45:20.078Z,19.18
2022-08-14T03:45:26.173Z,19.19
2022-08-14T03:46:10.015Z,19.18
2022-08-14T03:47:04.834Z,19.19
2022-08-14T03:48:04.761Z,19.16
2022-08-14T03:49:04.679Z,19.16
2022-08-14T03:50:04.607Z,19.16
2022-08-14T03:51:04.529Z,19.18
2022-08-14T03:52:04.455Z,19.22
2022-08-14T03:53:04.510Z,19.21
2022-08-14T03:54:04.301Z,19.19
2022-08-14T03:55:04.226Z,19.19
2022-08-14T03:56:04.150Z,19.19
2022-08-14T03:57:04.076Z,19.16
2022-08-14T03:58:03.997Z,19.16
2022-08-14T03:59:03.925Z,19.22
2022-08-14T04:00:03.857Z,19.12
2022-08-14T04:01:03.809Z,19.08
2022-08-14T04:02:04.814Z,19.11
2022-08-14T04:03:03.626Z,19.11
2022-08-14T04:04:03.543Z,18.98
2022-08-14T04:05:11.513Z,19.08
2022-08-14T04:06:03.392Z,19.07
2022-08-14T04:07:03.328Z,19.11
2022-08-14T04:08:22.536Z,19.14
2022-08-14T04:09:03.168Z,19.04
2022-08-14T04:10:03.092Z,19.02
2022-08-14T04:11:07.959Z,19.07
2022-08-14T04:12:02.935Z,19.00
2022-08-14T04:13:03.372Z,19.07
2022-08-14T04:14:02.785Z,19.02
2022-08-14T04:15:02.709Z,19.04
2022-08-14T04:16:05.032Z,19.07
2022-08-14T04:17:02.562Z,19.04
2022-08-14T04:18:02.483Z,19.04
2022-08-14T04:19:02.411Z,19.02
2022-08-14T04:20:02.333Z,19.11
2022-08-14T04:21:02.260Z,19.08
2022-08-14T04:22:04.028Z,19.02
2022-08-14T04:23:02.112Z,19.00
2022-08-14T04:24:02.044Z,19.02
2022-08-14T04:25:04.886Z,19.02
2022-08-14T04:26:01.874Z,18.98
2022-08-14T04:27:01.798Z,18.99
2022-08-14T04:28:03.619Z,19.00
2022-08-14T04:29:13.735Z,19.02
2022-08-14T04:30:01.572Z,19.00
2022-08-14T04:31:01.496Z,18.99
2022-08-14T04:33:02.796Z,19.09
2022-08-14T04:33:05.400Z,18.99
2022-08-14T04:34:01.270Z,19.02
2022-08-14T04:35:01.192Z,19.08
2022-08-14T04:36:01.119Z,19.02
2022-08-14T04:37:01.046Z,19.12
2022-08-14T04:38:00.967Z,19.09
2022-08-14T04:39:00.890Z,19.00
2022-08-14T04:40:00.872Z,19.09
2022-08-14T04:41:00.737Z,19.09
2022-08-14T04:42:00.661Z,19.07
2022-08-14T04:43:00.584Z,19.11
2022-08-14T04:44:00.508Z,19.08
2022-08-14T04:45:01.009Z,19.15
2022-08-14T04:46:00.361Z,19.14
2022-08-14T04:47:00.283Z,19.19
2022-08-14T04:48:00.205Z,19.21
2022-08-14T04:49:00.540Z,19.19
2022-08-14T04:50:00.061Z,19.19
2022-08-14T04:50:59.978Z,19.27
2022-08-14T04:51:59.904Z,19.30
2022-08-14T04:52:59.829Z,19.33
2022-08-14T04:53:59.775Z,19.27
2022-08-14T04:54:59.674Z,19.31
2022-08-14T04:55:59.599Z,19.24
2022-08-14T04:56:59.533Z,19.34
2022-08-14T04:57:59.464Z,19.29
2022-08-14T04:58:59.375Z,19.29
2022-08-14T04:59:59.303Z,19.26
2022-08-14T05:00:59.220Z,19.29
2022-08-14T05:01:59.189Z,19.31
2022-08-14T05:02:59.083Z,19.31
2022-08-14T05:03:58.996Z,19.39
2022-08-14T05:04:58.971Z,19.44
2022-08-14T05:05:58.846Z,19.41
2022-08-14T05:06:58.765Z,19.41
2022-08-14T05:08:01.795Z,19.45
2022-08-14T05:09:00.296Z,19.39
2022-08-14T05:09:58.540Z,19.54
2022-08-14T05:10:58.464Z,19.48
2022-08-14T05:13:08.309Z,19.49
2022-08-14T05:13:13.145Z,19.62
2022-08-14T05:14:16.891Z,19.62
2022-08-14T05:14:58.163Z,19.56
2022-08-14T05:15:58.084Z,19.58
2022-08-14T05:17:01.581Z,19.63
2022-08-14T05:18:17.039Z,19.56
2022-08-14T05:19:18.284Z,19.63
2022-08-14T05:21:04.282Z,19.69
2022-08-14T05:21:56.520Z,19.74
2022-08-14T05:22:16.087Z,19.73
2022-08-14T05:22:57.556Z,19.67
2022-08-14T05:23:57.480Z,19.73
2022-08-14T05:24:57.405Z,19.74
2022-08-14T05:25:57.329Z,19.86
2022-08-14T05:26:57.252Z,19.86
2022-08-14T05:27:57.178Z,19.85
2022-08-14T05:28:58.204Z,19.86
2022-08-14T05:29:57.446Z,19.91
2022-08-14T05:30:56.953Z,19.92
2022-08-14T05:31:58.032Z,19.92
2022-08-14T05:32:56.797Z,19.96
2022-08-14T05:33:57.184Z,20.03
2022-08-14T05:34:56.668Z,20.00
2022-08-14T05:35:56.578Z,20.02
2022-08-14T05:37:02.003Z,20.03
2022-08-14T05:37:56.427Z,20.04
2022-08-14T05:38:56.349Z,20.07
2022-08-14T05:39:56.377Z,20.10
2022-08-14T05:40:56.197Z,20.16
2022-08-14T05:41:56.129Z,20.14
2022-08-14T05:42:56.694Z,20.26
2022-08-14T05:43:55.965Z,20.21
2022-08-14T05:44:56.205Z,20.16
2022-08-14T05:45:55.838Z,20.29
2022-08-14T05:46:55.747Z,20.28
2022-08-14T05:47:55.667Z,20.22
2022-08-14T05:48:55.589Z,20.25
2022-08-14T05:49:55.520Z,20.39
2022-08-14T05:50:55.441Z,20.31
2022-08-14T05:51:55.363Z,20.40
2022-08-14T05:52:55.548Z,20.37
2022-08-14T05:54:00.314Z,20.43
2022-08-14T05:54:55.143Z,20.40
2022-08-14T05:55:55.066Z,20.48
2022-08-14T05:56:55.205Z,20.47
2022-08-14T05:57:55.010Z,20.50
2022-08-14T05:58:54.836Z,20.56
2022-08-14T05:59:54.761Z,20.55
2022-08-14T06:00:54.695Z,20.52
2022-08-14T06:01:54.638Z,20.55
2022-08-14T06:02:54.538Z,20.60
2022-08-14T06:03:54.773Z,20.66
2022-08-14T06:04:54.384Z,20.63
2022-08-14T06:05:54.314Z,20.66
2022-08-14T06:06:54.236Z,20.72
2022-08-14T06:07:54.162Z,20.74
2022-08-14T06:08:54.084Z,20.69
2022-08-14T06:09:54.007Z,20.70
2022-08-14T06:10:53.935Z,20.78
2022-08-14T06:11:53.879Z,20.78
2022-08-14T06:13:00.146Z,20.78
2022-08-14T06:13:53.709Z,20.82
2022-08-14T06:14:53.638Z,20.85
2022-08-14T06:15:53.557Z,20.82
2022-08-14T06:16:53.562Z,20.87
2022-08-14T06:17:56.651Z,20.84
2022-08-14T06:18:53.490Z,20.90
2022-08-14T06:19:53.285Z,20.96
2022-08-14T06:20:53.185Z,20.93
2022-08-14T06:21:59.096Z,20.96
2022-08-14T06:22:53.041Z,21.03
2022-08-14T06:23:52.963Z,21.06
2022-08-14T06:24:52.891Z,21.17
2022-08-14T06:25:53.375Z,21.20
2022-08-14T06:26:57.010Z,21.21
2022-08-14T06:27:52.669Z,21.24
2022-08-14T06:28:52.797Z,21.25
2022-08-14T06:29:52.513Z,21.25
2022-08-14T06:30:52.434Z,21.29
2022-08-14T06:32:00.158Z,21.35
2022-08-14T06:32:53.286Z,21.35
2022-08-14T06:35:03.837Z,21.33
2022-08-14T06:35:10.123Z,21.37
2022-08-14T06:35:52.059Z,21.42
2022-08-14T06:36:51.980Z,21.45
2022-08-14T06:37:51.907Z,21.50
2022-08-14T06:38:52.277Z,21.51
2022-08-14T06:39:51.789Z,21.46
2022-08-14T06:40:51.685Z,21.45
2022-08-14T06:41:59.402Z,21.60
2022-08-14T06:42:51.546Z,21.62
2022-08-14T06:43:51.457Z,21.62
2022-08-14T06:44:51.385Z,21.61
2022-08-14T06:45:54.552Z,21.75
2022-08-14T06:46:51.237Z,21.79
2022-08-14T06:47:51.162Z,21.70
2022-08-14T06:48:51.093Z,21.64
2022-08-14T06:49:57.843Z,21.72
2022-08-14T06:50:50.932Z,21.73
2022-08-14T06:51:50.869Z,21.72
2022-08-14T06:52:50.794Z,21.80
2022-08-14T06:53:50.896Z,21.75
2022-08-14T06:54:50.644Z,21.75
2022-08-14T06:55:58.192Z,21.82
2022-08-14T06:56:54.288Z,21.80
2022-08-14T06:57:50.410Z,21.79
2022-08-14T06:58:50.342Z,21.82
2022-08-14T06:59:50.277Z,21.83
2022-08-14T07:00:50.382Z,21.76
2022-08-14T07:01:50.151Z,21.85
2022-08-14T07:02:50.053Z,21.80
2022-08-14T07:03:49.970Z,21.91
2022-08-14T07:04:49.891Z,21.99
2022-08-14T07:05:55.217Z,21.93
2022-08-14T07:06:49.745Z,22.04
2022-08-14T07:07:49.670Z,22.06
2022-08-14T07:08:49.592Z,22.04
2022-08-14T07:09:51.284Z,22.11
2022-08-14T07:10:49.450Z,22.08
2022-08-14T07:11:49.371Z,22.14
2022-08-14T07:13:02.422Z,22.22
2022-08-14T07:13:49.227Z,22.25
2022-08-14T07:14:49.152Z,22.28
2022-08-14T07:15:49.068Z,22.32
2022-08-14T07:16:48.999Z,22.33
2022-08-14T07:17:51.934Z,22.33
2022-08-14T07:18:50.885Z,22.43
2022-08-14T07:19:48.774Z,22.41
2022-08-14T07:20:48.705Z,22.47
2022-08-14T07:21:48.628Z,22.47
2022-08-14T07:22:56.012Z,22.48
2022-08-14T07:23:48.477Z,22.50
2022-08-14T07:24:48.402Z,22.48
2022-08-14T07:25:48.331Z,22.60
2022-08-14T07:26:48.253Z,22.57
2022-08-14T07:27:48.181Z,22.65
2022-08-14T07:28:48.111Z,22.66
2022-08-14T07:29:48.033Z,22.68
2022-08-14T07:30:50.955Z,22.70
2022-08-14T07:31:47.884Z,22.81
2022-08-14T07:32:48.107Z,22.80
2022-08-14T07:33:50.625Z,22.83
2022-08-14T07:34:47.658Z,22.90
2022-08-14T07:35:58.696Z,22.88
2022-08-14T07:36:57.967Z,22.91
2022-08-14T07:37:47.434Z,23.03
2022-08-14T07:38:52.050Z,23.05
2022-08-14T07:39:47.346Z,23.00
2022-08-14T07:40:47.219Z,23.15
2022-08-14T07:41:47.140Z,23.18
2022-08-14T07:42:47.073Z,23.20
2022-08-14T07:43:52.933Z,23.17
2022-08-14T07:44:50.617Z,23.36
2022-08-14T07:45:46.844Z,23.36
2022-08-14T07:46:46.782Z,23.39
2022-08-14T07:47:46.699Z,23.41
2022-08-14T07:48:48.145Z,23.47
2022-08-14T07:49:46.551Z,23.46
2022-08-14T07:50:46.476Z,23.47
2022-08-14T07:51:49.595Z,23.50
2022-08-14T07:52:46.516Z,23.51
2022-08-14T07:53:46.270Z,23.55
2022-08-14T07:54:46.181Z,23.58
2022-08-14T07:55:46.104Z,23.61
2022-08-14T07:56:48.823Z,23.63
2022-08-14T07:57:45.958Z,23.61
2022-08-14T07:58:51.680Z,23.65
2022-08-14T07:59:46.892Z,23.68
2022-08-14T08:00:45.734Z,23.73
2022-08-14T08:01:48.449Z,23.73
2022-08-14T08:02:45.824Z,23.81
2022-08-14T08:03:47.676Z,23.77
2022-08-14T08:04:45.441Z,23.80
2022-08-14T08:05:45.369Z,23.93
2022-08-14T08:06:45.308Z,23.86
2022-08-14T08:07:45.226Z,23.87
2022-08-14T08:08:45.149Z,23.91
2022-08-14T08:09:45.866Z,23.88
2022-08-14T08:11:01.977Z,23.88
2022-08-14T08:11:44.939Z,23.87
2022-08-14T08:12:45.003Z,23.87
2022-08-14T08:13:49.087Z,23.98
2022-08-14T08:14:55.642Z,24.02
2022-08-14T08:15:44.639Z,23.99
2022-08-14T08:16:44.558Z,24.02
2022-08-14T08:17:53.916Z,23.99
2022-08-14T08:18:44.413Z,24.10
2022-08-14T08:19:44.538Z,24.13
2022-08-14T08:20:44.264Z,24.11
2022-08-14T08:21:45.194Z,24.16
2022-08-14T08:22:47.913Z,24.23
2022-08-14T08:23:51.197Z,24.24
2022-08-14T08:24:43.970Z,24.23
2022-08-14T08:25:43.896Z,24.28
2022-08-14T08:26:43.828Z,24.30
2022-08-14T08:27:44.664Z,24.32
2022-08-14T08:28:44.119Z,24.35
2022-08-14T08:29:43.609Z,24.38
2022-08-14T08:30:45.037Z,24.36
2022-08-14T08:31:48.443Z,24.40
2022-08-14T08:32:43.509Z,24.35
2022-08-14T08:33:43.310Z,24.39
2022-08-14T08:34:43.236Z,24.50
2022-08-14T08:35:46.839Z,24.47
2022-08-14T08:36:43.091Z,24.50
2022-08-14T08:37:43.697Z,24.51
2022-08-14T08:39:14.552Z,24.50
2022-08-14T08:40:02.775Z,24.60
2022-08-14T08:40:42.849Z,24.50
2022-08-14T08:41:43.259Z,24.68
2022-08-14T08:42:44.832Z,24.61
2022-08-14T08:43:46.145Z,24.68
2022-08-14T08:44:42.511Z,24.68
2022-08-14T08:45:42.430Z,24.65
2022-08-14T08:46:42.357Z,24.74
2022-08-14T08:47:42.287Z,24.74
2022-08-14T08:48:49.854Z,24.80
2022-08-14T08:49:43.131Z,24.85
2022-08-14T08:50:42.069Z,24.85
2022-08-14T08:51:43.136Z,24.96
2022-08-14T08:52:42.065Z,24.96
2022-08-14T08:53:41.847Z,25.04
2022-08-14T08:54:41.772Z,24.95
2022-08-14T08:55:42.478Z,25.04
2022-08-14T08:56:42.086Z,24.98
2022-08-14T08:57:41.558Z,25.11
2022-08-14T08:58:41.481Z,25.08
2022-08-14T08:59:42.180Z,25.18
2022-08-14T09:00:41.369Z,25.03
2022-08-14T09:01:41.269Z,25.14
2022-08-14T09:02:41.231Z,25.11
2022-08-14T09:03:41.117Z,25.14
2022-08-14T09:04:45.209Z,25.23
2022-08-14T09:05:40.967Z,25.22
2022-08-14T09:07:09.201Z,25.26
2022-08-14T09:07:40.830Z,25.29
2022-08-14T09:08:40.752Z,25.31
2022-08-14T09:09:54.533Z,25.29
2022-08-14T09:10:40.605Z,25.33
2022-08-14T09:11:40.535Z,25.38
2022-08-14T09:12:40.461Z,25.46
2022-08-14T09:13:40.389Z,25.41
2022-08-14T09:14:40.313Z,25.38
2022-08-14T09:15:42.570Z,25.38
2022-08-14T09:16:40.176Z,25.26
2022-08-14T09:17:40.307Z,25.43
2022-08-14T09:18:40.028Z,25.36
2022-08-14T09:19:39.949Z,25.38
2022-08-14T09:20:39.881Z,25.51
2022-08-14T09:21:39.805Z,25.48
2022-08-14T09:22:47.726Z,25.53
2022-08-14T09:24:26.784Z,25.51
2022-08-14T09:24:44.161Z,25.54
2022-08-14T09:25:59.971Z,25.41
2022-08-14T09:26:39.440Z,25.40
2022-08-14T09:27:39.891Z,25.48
2022-08-14T09:28:39.303Z,25.48
2022-08-14T09:29:39.229Z,25.63
2022-08-14T09:30:39.449Z,25.59
2022-08-14T09:31:42.989Z,25.59
2022-08-14T09:32:58.937Z,25.68
2022-08-14T09:33:56.041Z,25.81
2022-08-14T09:34:38.860Z,25.80
2022-08-14T09:35:38.787Z,25.77
2022-08-14T09:36:38.718Z,25.90
2022-08-14T09:37:38.645Z,25.88
2022-08-14T09:38:40.713Z,25.85
2022-08-14T09:39:38.586Z,25.95
2022-08-14T09:40:38.813Z,25.98
2022-08-14T09:42:21.049Z,25.95
2022-08-14T09:42:49.872Z,25.99
2022-08-14T09:43:38.209Z,26.00
2022-08-14T09:44:38.140Z,26.02
2022-08-14T09:45:39.791Z,26.00
2022-08-14T09:46:37.990Z,26.09
2022-08-14T09:47:37.919Z,26.09
2022-08-14T09:48:37.847Z,26.13
2022-08-14T09:49:40.102Z,26.15
2022-08-14T09:50:37.699Z,26.29
2022-08-14T09:51:44.717Z,26.33
2022-08-14T09:52:37.556Z,26.34
2022-08-14T09:54:18.256Z,26.38
2022-08-14T09:54:37.411Z,26.51
2022-08-14T09:55:42.464Z,26.47
2022-08-14T09:56:37.272Z,26.51
2022-08-14T09:57:37.208Z,26.53
2022-08-14T09:58:37.123Z,26.59
2022-08-14T09:59:37.048Z,26.55
2022-08-14T10:00:36.974Z,26.58
2022-08-14T10:01:37.298Z,26.65
2022-08-14T10:02:36.834Z,26.63
2022-08-14T10:03:36.757Z,26.74
2022-08-14T10:04:39.209Z,26.74
2022-08-14T10:05:39.042Z,26.81
2022-08-14T10:06:36.548Z,26.83
2022-08-14T10:07:36.475Z,26.89
2022-08-14T10:08:36.399Z,26.97
2022-08-14T10:09:36.323Z,27.02
2022-08-14T10:10:36.256Z,27.02
2022-08-14T10:11:36.197Z,27.07
2022-08-14T10:12:36.115Z,27.05
2022-08-14T10:13:42.870Z,27.05
2022-08-14T10:14:37.146Z,27.00
2022-08-14T10:15:35.899Z,27.02
2022-08-14T10:16:35.821Z,26.99
2022-08-14T10:17:38.849Z,26.90
2022-08-14T10:18:35.672Z,26.85
2022-08-14T10:19:36.418Z,26.88
2022-08-14T10:20:39.968Z,26.78
2022-08-14T10:21:38.995Z,26.88
2022-08-14T10:23:13.006Z,26.85
2022-08-14T10:23:35.537Z,26.84
2022-08-14T10:24:36.857Z,26.83
2022-08-14T10:25:35.171Z,26.80
2022-08-14T10:26:35.101Z,26.81
2022-08-14T10:27:35.030Z,26.85
2022-08-14T10:29:03.717Z,27.00
2022-08-14T10:29:34.882Z,27.02
2022-08-14T10:30:34.829Z,27.10
2022-08-14T10:31:44.797Z,27.17
2022-08-14T10:32:36.595Z,27.29
2022-08-14T10:33:34.594Z,27.32
2022-08-14T10:34:36.613Z,27.42
2022-08-14T10:35:34.451Z,27.35
2022-08-14T10:36:37.273Z,27.47
2022-08-14T10:37:34.318Z,27.58
2022-08-14T10:38:34.243Z,27.51
2022-08-14T10:39:34.190Z,27.59
2022-08-14T10:40:37.476Z,27.60
2022-08-14T10:41:34.028Z,27.65
2022-08-14T10:42:33.955Z,27.71
2022-08-14T10:43:33.878Z,27.73
2022-08-14T10:44:33.808Z,27.82
2022-08-14T10:45:35.544Z,27.87
2022-08-14T10:47:39.641Z,28.05
2022-08-14T10:47:41.429Z,27.89
2022-08-14T10:48:36.865Z,28.11
2022-08-14T10:49:33.450Z,28.22
2022-08-14T10:50:33.376Z,28.19
2022-08-14T10:51:34.292Z,28.12
2022-08-14T10:52:33.903Z,28.14
2022-08-14T10:53:33.190Z,28.17
2022-08-14T10:54:36.088Z,28.32
2022-08-14T10:55:33.023Z,28.20
2022-08-14T10:56:33.784Z,28.26
2022-08-14T10:57:32.882Z,28.33
2022-08-14T10:58:34.280Z,28.45
2022-08-14T10:59:37.329Z,28.52
2022-08-14T11:00:35.909Z,28.59
2022-08-14T11:01:32.594Z,28.56
2022-08-14T11:02:36.074Z,28.67
2022-08-14T11:03:55.661Z,28.67
2022-08-14T11:04:32.388Z,28.82
2022-08-14T11:05:32.316Z,28.84
2022-08-14T11:06:32.245Z,28.88
2022-08-14T11:07:32.168Z,28.96
2022-08-14T11:08:32.101Z,29.01
2022-08-14T11:09:32.456Z,29.08
2022-08-14T11:10:31.968Z,29.07
2022-08-14T11:11:37.146Z,29.02
2022-08-14T11:12:33.881Z,29.07
2022-08-14T11:13:31.742Z,29.05
2022-08-14T11:14:31.671Z,29.14
2022-08-14T11:15:32.496Z,29.13
2022-08-14T11:16:31.537Z,29.17
2022-08-14T11:17:32.064Z,29.20
2022-08-14T11:18:35.682Z,29.23
2022-08-14T11:19:31.322Z,29.27
2022-08-14T11:20:31.254Z,29.44
2022-08-14T11:21:34.157Z,29.45
2022-08-14T11:22:55.500Z,29.38
2022-08-14T11:23:38.113Z,29.50
2022-08-14T11:24:50.713Z,29.47
2022-08-14T11:25:43.982Z,29.60
2022-08-14T11:26:30.825Z,29.57
2022-08-14T11:27:33.287Z,29.69
2022-08-14T11:28:47.381Z,29.73
2022-08-14T11:29:37.792Z,29.88
2022-08-14T11:31:39.005Z,29.84
2022-08-14T11:32:34.377Z,29.88
2022-08-14T11:34:38.223Z,29.90
2022-08-14T11:35:47.731Z,29.95
2022-08-14T11:37:41.986Z,30.05
2022-08-14T11:38:44.969Z,30.02
2022-08-14T11:39:41.888Z,30.02
2022-08-14T11:40:41.760Z,30.13
2022-08-14T11:41:46.716Z,30.23
2022-08-14T11:42:58.549Z,30.21
2022-08-14T11:43:41.743Z,30.35
2022-08-14T11:44:45.573Z,30.35
2022-08-14T11:45:41.417Z,30.53
2022-08-14T11:46:41.341Z,30.53
2022-08-14T11:47:43.947Z,30.55
2022-08-14T11:49:02.688Z,30.57
2022-08-14T11:49:41.136Z,30.57
2022-08-14T11:50:41.062Z,30.51
2022-08-14T11:51:54.041Z,30.69
2022-08-14T11:52:40.955Z,30.72
2022-08-14T11:53:42.231Z,30.84
2022-08-14T11:54:40.784Z,30.94
2022-08-14T11:55:40.719Z,30.96
2022-08-14T11:56:40.643Z,31.00
2022-08-14T11:57:40.578Z,31.12
2022-08-14T11:58:40.504Z,31.09
2022-08-14T11:59:44.128Z,31.03
2022-08-14T12:00:40.369Z,31.05
2022-08-14T12:01:41.123Z,30.97
2022-08-14T12:03:03.454Z,30.91
2022-08-14T12:03:51.192Z,31.06
2022-08-14T12:04:40.227Z,31.07
2022-08-14T12:05:40.061Z,31.10
2022-08-14T12:06:40.009Z,31.15
2022-08-14T12:07:48.258Z,31.21
2022-08-14T12:08:39.812Z,31.18
2022-08-14T12:09:43.061Z,31.22
2022-08-14T12:10:41.125Z,31.31
2022-08-14T12:11:43.924Z,31.44
2022-08-14T12:12:39.536Z,31.42
2022-08-14T12:13:39.469Z,31.54
2022-08-14T12:14:43.968Z,31.65
2022-08-14T12:15:44.705Z,31.69
2022-08-14T12:16:39.259Z,31.81
2022-08-14T12:17:47.688Z,31.74
2022-08-14T12:18:39.116Z,31.94
2022-08-14T12:19:39.052Z,32.11
2022-08-14T12:20:45.972Z,32.01
2022-08-14T12:21:38.912Z,32.21
2022-08-14T12:22:40.191Z,32.14
2022-08-14T12:23:38.784Z,32.19
2022-08-14T12:24:40.825Z,32.38
2022-08-14T12:25:38.642Z,32.34
2022-08-14T12:26:40.741Z,32.49
2022-08-14T12:27:41.713Z,32.58
2022-08-14T12:28:59.187Z,32.67
2022-08-14T12:29:38.359Z,32.93
2022-08-14T12:30:42.389Z,33.04
2022-08-14T12:31:44.462Z,33.08
2022-08-14T12:32:38.158Z,33.23
2022-08-14T12:33:38.090Z,33.24
2022-08-14T12:34:38.017Z,33.49
2022-08-14T12:35:39.792Z,33.77
2022-08-14T12:36:37.888Z,34.01
2022-08-14T12:37:37.812Z,34.21
2022-08-14T12:38:37.753Z,34.45
2022-08-14T12:39:39.742Z,34.81
2022-08-14T12:40:37.612Z,35.17
2022-08-14T12:41:37.542Z,35.76
2022-08-14T12:42:40.724Z,36.37
2022-08-14T12:43:37.406Z,37.02
2022-08-14T12:44:37.362Z,37.63
2022-08-14T12:45:37.285Z,38.28
2022-08-14T12:46:37.207Z,38.64
2022-08-14T12:47:37.206Z,39.14
2022-08-14T12:48:37.068Z,39.62
2022-08-14T12:49:36.999Z,40.00
2022-08-14T12:50:36.933Z,40.53
2022-08-14T12:51:36.878Z,41.09
2022-08-14T12:52:47.320Z,41.52
2022-08-14T12:53:38.714Z,40.78
2022-08-14T12:54:36.936Z,40.12